sensor_id;sensor_type;location;lat;lon;timestamp;temperature;humidity
16958;DHT22;8595;52.542;11.974;2023-05-16T00:01:55;13.00;99.90
16958;DHT22;8595;52.542;11.974;2023-05-16T00:04:22;12.80;99.90
16958;DHT22;8595;52.542;11.974;2023-05-16T00:06:50;12.80;99.90
16958;DHT22;8595;52.542;11.974;2023-05-16T00:09:17;12.60;99.90
16958;DHT22;8595;52.542;11.974;2023-05-16T00:11:44;12.50;99.90
16958;DHT22;8595;52.542;11.974;2023-05-16T00:14:12;12.50;99.90
16958;DHT22;8595;52.542;11.974;2023-05-16T00:16:40;12.40;99.90
16958;DHT22;8595;52.542;11.974;2023-05-16T00:19:07;12.40;99.90
16958;DHT22;8595;52.542;11.974;2023-05-16T00:21:34;12.30;99.90
16958;DHT22;8595;52.542;11.974;2023-05-16T00:24:03;12.30;99.90
16958;DHT22;8595;52.542;11.974;2023-05-16T00:26:30;12.10;99.90
16958;DHT22;8595;52.542;11.974;2023-05-16T00:28:56;11.90;99.90
16958;DHT22;8595;52.542;11.974;2023-05-16T00:31:26;11.90;99.90
16958;DHT22;8595;52.542;11.974;2023-05-16T00:33:54;11.60;99.90
16958;DHT22;8595;52.542;11.974;2023-05-16T00:36:22;11.50;99.90
16958;DHT22;8595;52.542;11.974;2023-05-16T00:38:51;11.40;99.90
16958;DHT22;8595;52.542;11.974;2023-05-16T00:41:19;11.40;99.90
16958;DHT22;8595;52.542;11.974;2023-05-16T00:43:46;11.20;99.90
16958;DHT22;8595;52.542;11.974;2023-05-16T00:46:13;11.00;99.90
16958;DHT22;8595;52.542;11.974;2023-05-16T00:48:39;10.90;99.90
16958;DHT22;8595;52.542;11.974;2023-05-16T00:51:06;10.90;99.90
16958;DHT22;8595;52.542;11.974;2023-05-16T00:53:33;10.80;99.90
16958;DHT22;8595;52.542;11.974;2023-05-16T00:56:01;10.60;99.90
16958;DHT22;8595;52.542;11.974;2023-05-16T00:58:29;10.60;99.90
16958;DHT22;8595;52.542;11.974;2023-05-16T01:00:58;10.50;99.90
16958;DHT22;8595;52.542;11.974;2023-05-16T01:03:26;10.30;99.90
16958;DHT22;8595;52.542;11.974;2023-05-16T01:05:53;10.30;99.90
16958;DHT22;8595;52.542;11.974;2023-05-16T01:08:20;10.30;99.90
16958;DHT22;8595;52.542;11.974;2023-05-16T01:10:52;10.40;99.90
16958;DHT22;8595;52.542;11.974;2023-05-16T01:13:26;10.40;99.90
16958;DHT22;8595;52.542;11.974;2023-05-16T01:16:03;10.70;99.90
16958;DHT22;8595;52.542;11.974;2023-05-16T01:18:39;10.80;99.90
16958;DHT22;8595;52.542;11.974;2023-05-16T01:21:11;10.80;99.90
16958;DHT22;8595;52.542;11.974;2023-05-16T01:23:51;10.70;99.90
16958;DHT22;8595;52.542;11.974;2023-05-16T01:26:21;10.70;99.90
16958;DHT22;8595;52.542;11.974;2023-05-16T01:28:50;10.80;99.90
16958;DHT22;8595;52.542;11.974;2023-05-16T01:31:18;10.90;99.90
16958;DHT22;8595;52.542;11.974;2023-05-16T01:33:45;10.70;99.90
16958;DHT22;8595;52.542;11.974;2023-05-16T01:36:20;10.60;99.90
16958;DHT22;8595;52.542;11.974;2023-05-16T01:38:55;10.70;99.90
16958;DHT22;8595;52.542;11.974;2023-05-16T01:41:33;10.70;99.90
16958;DHT22;8595;52.542;11.974;2023-05-16T01:44:09;10.80;99.90
16958;DHT22;8595;52.542;11.974;2023-05-16T01:46:39;10.80;99.90
16958;DHT22;8595;52.542;11.974;2023-05-16T01:49:14;10.80;99.90
16958;DHT22;8595;52.542;11.974;2023-05-16T01:51:46;10.90;99.90
16958;DHT22;8595;52.542;11.974;2023-05-16T01:54:17;10.80;99.90
16958;DHT22;8595;52.542;11.974;2023-05-16T01:56:51;10.80;99.90
16958;DHT22;8595;52.542;11.974;2023-05-16T01:59:19;10.90;99.90
16958;DHT22;8595;52.542;11.974;2023-05-16T02:01:47;10.80;99.90
16958;DHT22;8595;52.542;11.974;2023-05-16T02:04:14;10.70;99.90
16958;DHT22;8595;52.542;11.974;2023-05-16T02:06:41;10.70;99.90
16958;DHT22;8595;52.542;11.974;2023-05-16T02:09:08;10.70;99.90
16958;DHT22;8595;52.542;11.974;2023-05-16T02:11:34;10.70;99.90
16958;DHT22;8595;52.542;11.974;2023-05-16T02:14:03;10.80;99.90
16958;DHT22;8595;52.542;11.974;2023-05-16T02:16:29;10.70;99.90
16958;DHT22;8595;52.542;11.974;2023-05-16T02:18:56;10.60;99.90
16958;DHT22;8595;52.542;11.974;2023-05-16T02:21:23;10.60;99.90
16958;DHT22;8595;52.542;11.974;2023-05-16T02:23:50;10.60;99.90
16958;DHT22;8595;52.542;11.974;2023-05-16T02:26:16;10.80;99.90
16958;DHT22;8595;52.542;11.974;2023-05-16T02:28:43;10.90;99.90
16958;DHT22;8595;52.542;11.974;2023-05-16T02:31:11;10.90;99.90
16958;DHT22;8595;52.542;11.974;2023-05-16T02:33:38;10.80;99.90
16958;DHT22;8595;52.542;11.974;2023-05-16T02:36:06;10.80;99.90
16958;DHT22;8595;52.542;11.974;2023-05-16T02:38:33;10.70;99.90
16958;DHT22;8595;52.542;11.974;2023-05-16T02:40:59;10.70;99.90
16958;DHT22;8595;52.542;11.974;2023-05-16T02:43:26;10.70;99.90
16958;DHT22;8595;52.542;11.974;2023-05-16T02:45:53;10.70;99.90
16958;DHT22;8595;52.542;11.974;2023-05-16T02:48:21;10.70;99.90
16958;DHT22;8595;52.542;11.974;2023-05-16T02:50:48;10.60;99.90
16958;DHT22;8595;52.542;11.974;2023-05-16T02:53:15;10.60;99.90
16958;DHT22;8595;52.542;11.974;2023-05-16T02:55:42;10.70;99.90
16958;DHT22;8595;52.542;11.974;2023-05-16T02:58:08;10.70;99.90
16958;DHT22;8595;52.542;11.974;2023-05-16T03:00:35;10.80;99.90
16958;DHT22;8595;52.542;11.974;2023-05-16T03:03:02;10.70;99.90
16958;DHT22;8595;52.542;11.974;2023-05-16T03:05:30;10.80;99.90
16958;DHT22;8595;52.542;11.974;2023-05-16T03:07:57;10.90;99.90
16958;DHT22;8595;52.542;11.974;2023-05-16T03:10:23;10.90;99.90
16958;DHT22;8595;52.542;11.974;2023-05-16T03:12:50;10.90;99.90
16958;DHT22;8595;52.542;11.974;2023-05-16T03:15:17;11.10;99.90
16958;DHT22;8595;52.542;11.974;2023-05-16T03:17:44;11.10;99.90
16958;DHT22;8595;52.542;11.974;2023-05-16T03:20:11;11.00;99.90
16958;DHT22;8595;52.542;11.974;2023-05-16T03:22:39;11.10;99.90
16958;DHT22;8595;52.542;11.974;2023-05-16T03:25:06;11.10;99.90
16958;DHT22;8595;52.542;11.974;2023-05-16T03:27:33;11.10;99.90
16958;DHT22;8595;52.542;11.974;2023-05-16T03:30:00;11.00;99.90
16958;DHT22;8595;52.542;11.974;2023-05-16T03:32:27;11.20;99.90
16958;DHT22;8595;52.542;11.974;2023-05-16T03:34:54;11.30;99.90
16958;DHT22;8595;52.542;11.974;2023-05-16T03:37:21;11.30;99.90
16958;DHT22;8595;52.542;11.974;2023-05-16T03:39:49;11.30;99.90
16958;DHT22;8595;52.542;11.974;2023-05-16T03:42:15;11.40;99.90
16958;DHT22;8595;52.542;11.974;2023-05-16T03:44:43;11.50;99.90
16958;DHT22;8595;52.542;11.974;2023-05-16T03:47:10;11.40;99.90
16958;DHT22;8595;52.542;11.974;2023-05-16T03:49:37;11.30;99.90
16958;DHT22;8595;52.542;11.974;2023-05-16T03:52:04;11.40;99.90
16958;DHT22;8595;52.542;11.974;2023-05-16T03:54:31;11.50;99.90
16958;DHT22;8595;52.542;11.974;2023-05-16T03:56:59;11.60;99.90
16958;DHT22;8595;52.542;11.974;2023-05-16T03:59:26;11.60;99.90
16958;DHT22;8595;52.542;11.974;2023-05-16T04:01:52;11.60;99.90
16958;DHT22;8595;52.542;11.974;2023-05-16T04:04:19;11.60;99.90
16958;DHT22;8595;52.542;11.974;2023-05-16T04:06:46;11.60;99.90
16958;DHT22;8595;52.542;11.974;2023-05-16T04:09:13;11.60;99.90
16958;DHT22;8595;52.542;11.974;2023-05-16T04:11:40;11.60;99.90
16958;DHT22;8595;52.542;11.974;2023-05-16T04:14:09;11.60;99.90
16958;DHT22;8595;52.542;11.974;2023-05-16T04:16:35;11.60;99.90
16958;DHT22;8595;52.542;11.974;2023-05-16T04:19:03;11.70;99.90
16958;DHT22;8595;52.542;11.974;2023-05-16T04:21:29;11.70;99.90
16958;DHT22;8595;52.542;11.974;2023-05-16T04:23:56;11.60;99.90
16958;DHT22;8595;52.542;11.974;2023-05-16T04:26:23;11.60;99.90
16958;DHT22;8595;52.542;11.974;2023-05-16T04:28:50;11.80;99.90
16958;DHT22;8595;52.542;11.974;2023-05-16T04:31:18;11.90;99.90
16958;DHT22;8595;52.542;11.974;2023-05-16T04:33:47;11.80;99.90
16958;DHT22;8595;52.542;11.974;2023-05-16T04:36:14;11.70;99.90
16958;DHT22;8595;52.542;11.974;2023-05-16T04:38:40;11.70;99.90
16958;DHT22;8595;52.542;11.974;2023-05-16T04:41:07;11.80;99.90
16958;DHT22;8595;52.542;11.974;2023-05-16T04:43:34;11.80;99.90
16958;DHT22;8595;52.542;11.974;2023-05-16T04:46:01;11.70;99.90
16958;DHT22;8595;52.542;11.974;2023-05-16T04:48:29;11.70;99.90
16958;DHT22;8595;52.542;11.974;2023-05-16T04:50:56;11.70;99.90
16958;DHT22;8595;52.542;11.974;2023-05-16T04:53:23;11.80;99.90
16958;DHT22;8595;52.542;11.974;2023-05-16T04:55:50;11.90;99.90
16958;DHT22;8595;52.542;11.974;2023-05-16T04:58:16;12.10;99.90
16958;DHT22;8595;52.542;11.974;2023-05-16T05:00:43;12.10;99.90
16958;DHT22;8595;52.542;11.974;2023-05-16T05:03:10;12.10;99.90
16958;DHT22;8595;52.542;11.974;2023-05-16T05:05:38;12.00;99.90
16958;DHT22;8595;52.542;11.974;2023-05-16T05:08:05;11.90;99.90
16958;DHT22;8595;52.542;11.974;2023-05-16T05:10:32;12.10;99.90
16958;DHT22;8595;52.542;11.974;2023-05-16T05:12:58;12.20;99.90
16958;DHT22;8595;52.542;11.974;2023-05-16T05:15:25;12.20;99.90
16958;DHT22;8595;52.542;11.974;2023-05-16T05:17:52;12.20;99.90
16958;DHT22;8595;52.542;11.974;2023-05-16T05:20:19;12.20;99.90
16958;DHT22;8595;52.542;11.974;2023-05-16T05:22:47;12.40;99.90
16958;DHT22;8595;52.542;11.974;2023-05-16T05:25:14;12.60;99.90
16958;DHT22;8595;52.542;11.974;2023-05-16T05:27:41;12.60;99.90
16958;DHT22;8595;52.542;11.974;2023-05-16T05:30:08;12.50;99.90
16958;DHT22;8595;52.542;11.974;2023-05-16T05:32:35;12.50;99.90
16958;DHT22;8595;52.542;11.974;2023-05-16T05:35:02;12.50;99.90
16958;DHT22;8595;52.542;11.974;2023-05-16T05:37:29;12.50;99.90
16958;DHT22;8595;52.542;11.974;2023-05-16T05:39:58;12.50;99.90
16958;DHT22;8595;52.542;11.974;2023-05-16T05:42:25;12.50;99.90
16958;DHT22;8595;52.542;11.974;2023-05-16T05:44:52;12.40;99.90
16958;DHT22;8595;52.542;11.974;2023-05-16T05:47:19;12.50;99.90
16958;DHT22;8595;52.542;11.974;2023-05-16T05:49:46;12.40;99.90
16958;DHT22;8595;52.542;11.974;2023-05-16T05:52:13;12.50;99.90
16958;DHT22;8595;52.542;11.974;2023-05-16T05:54:40;12.50;99.90
16958;DHT22;8595;52.542;11.974;2023-05-16T05:57:08;12.60;99.90
16958;DHT22;8595;52.542;11.974;2023-05-16T05:59:35;12.70;99.90
16958;DHT22;8595;52.542;11.974;2023-05-16T06:02:02;12.50;99.90
16958;DHT22;8595;52.542;11.974;2023-05-16T06:04:29;12.50;99.90
16958;DHT22;8595;52.542;11.974;2023-05-16T06:06:56;12.50;99.90
16958;DHT22;8595;52.542;11.974;2023-05-16T06:09:23;12.40;99.90
16958;DHT22;8595;52.542;11.974;2023-05-16T06:11:50;12.40;99.90
16958;DHT22;8595;52.542;11.974;2023-05-16T06:14:19;12.40;99.90
16958;DHT22;8595;52.542;11.974;2023-05-16T06:16:45;12.40;99.90
16958;DHT22;8595;52.542;11.974;2023-05-16T06:19:12;12.30;99.90
16958;DHT22;8595;52.542;11.974;2023-05-16T06:21:40;12.30;99.90
16958;DHT22;8595;52.542;11.974;2023-05-16T06:24:07;12.10;99.90
16958;DHT22;8595;52.542;11.974;2023-05-16T06:26:35;12.20;99.90
16958;DHT22;8595;52.542;11.974;2023-05-16T06:29:01;12.30;99.90
16958;DHT22;8595;52.542;11.974;2023-05-16T06:31:30;12.50;99.90
16958;DHT22;8595;52.542;11.974;2023-05-16T06:33:57;12.40;99.90
16958;DHT22;8595;52.542;11.974;2023-05-16T06:36:24;12.40;99.90
16958;DHT22;8595;52.542;11.974;2023-05-16T06:38:51;12.50;99.90
16958;DHT22;8595;52.542;11.974;2023-05-16T06:41:17;12.50;99.90
16958;DHT22;8595;52.542;11.974;2023-05-16T06:43:44;12.50;99.90
16958;DHT22;8595;52.542;11.974;2023-05-16T06:46:11;12.50;99.90
16958;DHT22;8595;52.542;11.974;2023-05-16T06:48:39;12.60;99.90
16958;DHT22;8595;52.542;11.974;2023-05-16T06:51:06;12.70;99.90
16958;DHT22;8595;52.542;11.974;2023-05-16T06:53:32;12.70;99.90
16958;DHT22;8595;52.542;11.974;2023-05-16T06:55:59;12.60;99.90
16958;DHT22;8595;52.542;11.974;2023-05-16T06:58:26;12.90;99.90
16958;DHT22;8595;52.542;11.974;2023-05-16T07:00:53;12.90;99.90
16958;DHT22;8595;52.542;11.974;2023-05-16T07:03:20;12.90;99.90
16958;DHT22;8595;52.542;11.974;2023-05-16T07:05:48;13.00;99.90
16958;DHT22;8595;52.542;11.974;2023-05-16T07:08:17;12.90;99.90
16958;DHT22;8595;52.542;11.974;2023-05-16T07:10:44;12.90;99.90
16958;DHT22;8595;52.542;11.974;2023-05-16T07:13:11;12.80;99.90
16958;DHT22;8595;52.542;11.974;2023-05-16T07:15:37;12.90;99.90
16958;DHT22;8595;52.542;11.974;2023-05-16T07:18:05;12.70;99.90
16958;DHT22;8595;52.542;11.974;2023-05-16T07:20:32;12.60;99.90
16958;DHT22;8595;52.542;11.974;2023-05-16T07:23:00;12.50;99.90
16958;DHT22;8595;52.542;11.974;2023-05-16T07:25:28;12.70;99.90
16958;DHT22;8595;52.542;11.974;2023-05-16T07:27:55;12.80;99.90
16958;DHT22;8595;52.542;11.974;2023-05-16T07:30:21;12.80;99.90
16958;DHT22;8595;52.542;11.974;2023-05-16T07:32:48;12.90;99.90
16958;DHT22;8595;52.542;11.974;2023-05-16T07:35:15;13.00;99.90
16958;DHT22;8595;52.542;11.974;2023-05-16T07:37:42;13.30;99.90
16958;DHT22;8595;52.542;11.974;2023-05-16T07:40:12;13.30;99.90
16958;DHT22;8595;52.542;11.974;2023-05-16T07:42:39;13.20;99.90
16958;DHT22;8595;52.542;11.974;2023-05-16T07:45:06;13.10;99.90
16958;DHT22;8595;52.542;11.974;2023-05-16T07:47:33;12.90;99.90
16958;DHT22;8595;52.542;11.974;2023-05-16T07:50:00;12.70;99.90
16958;DHT22;8595;52.542;11.974;2023-05-16T07:52:27;12.70;99.90
16958;DHT22;8595;52.542;11.974;2023-05-16T07:54:54;12.80;99.90
16958;DHT22;8595;52.542;11.974;2023-05-16T07:57:23;12.80;99.90
16958;DHT22;8595;52.542;11.974;2023-05-16T07:59:50;12.80;99.90
16958;DHT22;8595;52.542;11.974;2023-05-16T08:02:17;12.60;99.90
16958;DHT22;8595;52.542;11.974;2023-05-16T08:04:44;12.70;99.90
16958;DHT22;8595;52.542;11.974;2023-05-16T08:07:11;12.70;99.90
16958;DHT22;8595;52.542;11.974;2023-05-16T08:09:37;12.80;99.90
16958;DHT22;8595;52.542;11.974;2023-05-16T08:12:05;12.90;99.90
16958;DHT22;8595;52.542;11.974;2023-05-16T08:14:33;12.90;99.90
16958;DHT22;8595;52.542;11.974;2023-05-16T08:17:01;12.80;99.90
16958;DHT22;8595;52.542;11.974;2023-05-16T08:19:28;12.90;99.90
16958;DHT22;8595;52.542;11.974;2023-05-16T08:21:55;13.00;99.90
16958;DHT22;8595;52.542;11.974;2023-05-16T08:24:21;13.20;99.90
16958;DHT22;8595;52.542;11.974;2023-05-16T08:26:48;13.40;99.90
16958;DHT22;8595;52.542;11.974;2023-05-16T08:29:15;13.40;99.90
16958;DHT22;8595;52.542;11.974;2023-05-16T08:31:43;13.70;99.90
16958;DHT22;8595;52.542;11.974;2023-05-16T08:34:10;13.80;99.90
16958;DHT22;8595;52.542;11.974;2023-05-16T08:36:37;13.60;99.90
16958;DHT22;8595;52.542;11.974;2023-05-16T08:39:04;13.40;99.90
16958;DHT22;8595;52.542;11.974;2023-05-16T08:41:32;13.20;99.90
16958;DHT22;8595;52.542;11.974;2023-05-16T08:43:59;13.20;99.90
16958;DHT22;8595;52.542;11.974;2023-05-16T08:46:28;13.20;99.90
16958;DHT22;8595;52.542;11.974;2023-05-16T08:48:58;13.20;99.90
16958;DHT22;8595;52.542;11.974;2023-05-16T08:51:27;13.10;99.90
16958;DHT22;8595;52.542;11.974;2023-05-16T08:54:01;12.80;99.90
16958;DHT22;8595;52.542;11.974;2023-05-16T08:56:29;12.90;99.90
16958;DHT22;8595;52.542;11.974;2023-05-16T08:58:57;13.00;99.90
16958;DHT22;8595;52.542;11.974;2023-05-16T09:01:24;13.30;99.90
16958;DHT22;8595;52.542;11.974;2023-05-16T09:03:51;13.30;99.90
16958;DHT22;8595;52.542;11.974;2023-05-16T09:06:19;13.50;99.90
16958;DHT22;8595;52.542;11.974;2023-05-16T09:08:47;13.50;99.90
16958;DHT22;8595;52.542;11.974;2023-05-16T09:11:14;13.60;99.90
16958;DHT22;8595;52.542;11.974;2023-05-16T09:13:40;13.60;99.90
16958;DHT22;8595;52.542;11.974;2023-05-16T09:16:08;13.70;99.90
16958;DHT22;8595;52.542;11.974;2023-05-16T09:18:35;13.70;99.90
16958;DHT22;8595;52.542;11.974;2023-05-16T09:21:02;13.60;99.90
16958;DHT22;8595;52.542;11.974;2023-05-16T09:23:31;13.90;99.90
16958;DHT22;8595;52.542;11.974;2023-05-16T09:25:58;14.00;99.90
16958;DHT22;8595;52.542;11.974;2023-05-16T09:28:25;14.00;99.90
16958;DHT22;8595;52.542;11.974;2023-05-16T09:30:52;14.40;99.90
16958;DHT22;8595;52.542;11.974;2023-05-16T09:33:21;14.90;99.90
16958;DHT22;8595;52.542;11.974;2023-05-16T09:35:54;16.00;99.90
16958;DHT22;8595;52.542;11.974;2023-05-16T09:38:21;16.40;99.90
16958;DHT22;8595;52.542;11.974;2023-05-16T09:40:49;16.10;99.90
16958;DHT22;8595;52.542;11.974;2023-05-16T09:43:16;15.40;99.90
16958;DHT22;8595;52.542;11.974;2023-05-16T09:45:45;15.40;99.90
16958;DHT22;8595;52.542;11.974;2023-05-16T09:48:14;15.00;99.90
16958;DHT22;8595;52.542;11.974;2023-05-16T09:50:46;15.40;99.90
16958;DHT22;8595;52.542;11.974;2023-05-16T09:53:14;16.10;99.90
16958;DHT22;8595;52.542;11.974;2023-05-16T09:55:41;16.90;99.90
16958;DHT22;8595;52.542;11.974;2023-05-16T09:58:09;17.90;99.90
16958;DHT22;8595;52.542;11.974;2023-05-16T10:00:36;18.70;99.90
16958;DHT22;8595;52.542;11.974;2023-05-16T10:03:04;18.50;99.90
16958;DHT22;8595;52.542;11.974;2023-05-16T10:05:31;17.80;99.90
16958;DHT22;8595;52.542;11.974;2023-05-16T10:07:58;17.50;99.90
16958;DHT22;8595;52.542;11.974;2023-05-16T10:10:25;17.40;99.90
16958;DHT22;8595;52.542;11.974;2023-05-16T10:12:54;17.40;99.90
16958;DHT22;8595;52.542;11.974;2023-05-16T10:15:25;17.80;99.90
16958;DHT22;8595;52.542;11.974;2023-05-16T10:17:55;17.80;99.90
16958;DHT22;8595;52.542;11.974;2023-05-16T10:20:30;17.70;99.90
16958;DHT22;8595;52.542;11.974;2023-05-16T10:22:57;17.60;99.90
16958;DHT22;8595;52.542;11.974;2023-05-16T10:25:28;17.60;99.90
16958;DHT22;8595;52.542;11.974;2023-05-16T10:27:55;17.00;99.90
16958;DHT22;8595;52.542;11.974;2023-05-16T10:30:25;16.70;99.90
16958;DHT22;8595;52.542;11.974;2023-05-16T10:32:52;16.70;99.90
16958;DHT22;8595;52.542;11.974;2023-05-16T10:35:19;16.50;99.90
16958;DHT22;8595;52.542;11.974;2023-05-16T10:37:47;16.80;99.90
16958;DHT22;8595;52.542;11.974;2023-05-16T10:40:16;17.70;99.90
16958;DHT22;8595;52.542;11.974;2023-05-16T10:42:54;17.70;99.90
16958;DHT22;8595;52.542;11.974;2023-05-16T10:45:22;18.00;99.90
16958;DHT22;8595;52.542;11.974;2023-05-16T10:47:53;18.80;99.90
16958;DHT22;8595;52.542;11.974;2023-05-16T10:50:34;19.00;99.90
16958;DHT22;8595;52.542;11.974;2023-05-16T10:53:28;18.60;99.90
16958;DHT22;8595;52.542;11.974;2023-05-16T10:56:09;19.10;99.90
16958;DHT22;8595;52.542;11.974;2023-05-16T10:58:44;19.50;99.90
16958;DHT22;8595;52.542;11.974;2023-05-16T11:01:19;20.20;99.90
16958;DHT22;8595;52.542;11.974;2023-05-16T11:04:18;19.70;99.90
16958;DHT22;8595;52.542;11.974;2023-05-16T11:06:49;19.60;99.80
16958;DHT22;8595;52.542;11.974;2023-05-16T11:09:19;19.30;99.30
16958;DHT22;8595;52.542;11.974;2023-05-16T11:11:56;19.30;99.90
16958;DHT22;8595;52.542;11.974;2023-05-16T11:14:25;19.80;99.90
16958;DHT22;8595;52.542;11.974;2023-05-16T11:16:59;20.00;99.90
16958;DHT22;8595;52.542;11.974;2023-05-16T11:19:34;20.30;98.10
16958;DHT22;8595;52.542;11.974;2023-05-16T11:22:23;20.30;98.00
16958;DHT22;8595;52.542;11.974;2023-05-16T11:24:53;20.30;97.50
16958;DHT22;8595;52.542;11.974;2023-05-16T11:27:22;19.70;97.00
16958;DHT22;8595;52.542;11.974;2023-05-16T11:29:50;19.20;97.90
16958;DHT22;8595;52.542;11.974;2023-05-16T11:32:21;18.80;96.60
16958;DHT22;8595;52.542;11.974;2023-05-16T11:34:49;19.50;96.40
16958;DHT22;8595;52.542;11.974;2023-05-16T11:37:17;20.10;94.90
16958;DHT22;8595;52.542;11.974;2023-05-16T11:39:45;20.30;96.20
16958;DHT22;8595;52.542;11.974;2023-05-16T11:42:12;20.00;94.50
16958;DHT22;8595;52.542;11.974;2023-05-16T11:44:40;19.50;94.70
16958;DHT22;8595;52.542;11.974;2023-05-16T11:47:07;19.50;95.60
16958;DHT22;8595;52.542;11.974;2023-05-16T11:49:34;19.20;92.90
16958;DHT22;8595;52.542;11.974;2023-05-16T11:52:03;19.70;92.90
16958;DHT22;8595;52.542;11.974;2023-05-16T11:54:31;20.40;91.70
16958;DHT22;8595;52.542;11.974;2023-05-16T11:56:59;21.00;91.50
16958;DHT22;8595;52.542;11.974;2023-05-16T11:59:26;21.20;89.80
16958;DHT22;8595;52.542;11.974;2023-05-16T12:01:53;21.00;90.90
16958;DHT22;8595;52.542;11.974;2023-05-16T12:04:20;21.40;91.40
16958;DHT22;8595;52.542;11.974;2023-05-16T12:06:58;21.90;91.80
16958;DHT22;8595;52.542;11.974;2023-05-16T12:09:27;21.80;90.40
16958;DHT22;8595;52.542;11.974;2023-05-16T12:11:54;20.90;91.60
16958;DHT22;8595;52.542;11.974;2023-05-16T12:14:21;20.50;90.60
16958;DHT22;8595;52.542;11.974;2023-05-16T12:16:51;19.90;89.20
16958;DHT22;8595;52.542;11.974;2023-05-16T12:19:19;19.80;90.30
16958;DHT22;8595;52.542;11.974;2023-05-16T12:21:46;20.10;89.10
16958;DHT22;8595;52.542;11.974;2023-05-16T12:24:13;20.40;89.30
16958;DHT22;8595;52.542;11.974;2023-05-16T12:26:43;20.30;87.10
16958;DHT22;8595;52.542;11.974;2023-05-16T12:29:10;19.90;89.30
16958;DHT22;8595;52.542;11.974;2023-05-16T12:31:38;19.90;88.30
16958;DHT22;8595;52.542;11.974;2023-05-16T12:34:16;20.30;89.30
16958;DHT22;8595;52.542;11.974;2023-05-16T12:36:45;20.60;84.50
16958;DHT22;8595;52.542;11.974;2023-05-16T12:39:16;21.20;86.10
16958;DHT22;8595;52.542;11.974;2023-05-16T12:41:44;21.00;79.50
16958;DHT22;8595;52.542;11.974;2023-05-16T12:44:12;21.20;80.00
16958;DHT22;8595;52.542;11.974;2023-05-16T12:46:43;21.50;80.90
16958;DHT22;8595;52.542;11.974;2023-05-16T12:49:10;21.00;79.70
16958;DHT22;8595;52.542;11.974;2023-05-16T12:51:37;21.20;83.50
16958;DHT22;8595;52.542;11.974;2023-05-16T12:54:08;21.60;82.60
16958;DHT22;8595;52.542;11.974;2023-05-16T12:56:36;22.20;82.80
16958;DHT22;8595;52.542;11.974;2023-05-16T12:59:05;22.20;81.40
16958;DHT22;8595;52.542;11.974;2023-05-16T13:01:32;20.80;79.30
16958;DHT22;8595;52.542;11.974;2023-05-16T13:03:59;20.30;82.70
16958;DHT22;8595;52.542;11.974;2023-05-16T13:06:26;20.90;83.50
16958;DHT22;8595;52.542;11.974;2023-05-16T13:08:53;21.40;84.20
16958;DHT22;8595;52.542;11.974;2023-05-16T13:11:20;21.30;79.30
16958;DHT22;8595;52.542;11.974;2023-05-16T13:13:47;20.80;77.10
16958;DHT22;8595;52.542;11.974;2023-05-16T13:16:15;21.20;78.40
16958;DHT22;8595;52.542;11.974;2023-05-16T13:18:43;20.60;78.00
16958;DHT22;8595;52.542;11.974;2023-05-16T13:21:10;20.60;77.90
16958;DHT22;8595;52.542;11.974;2023-05-16T13:23:38;21.00;77.80
16958;DHT22;8595;52.542;11.974;2023-05-16T13:26:04;21.20;79.90
16958;DHT22;8595;52.542;11.974;2023-05-16T13:28:31;21.30;82.30
16958;DHT22;8595;52.542;11.974;2023-05-16T13:30:58;21.30;83.30
16958;DHT22;8595;52.542;11.974;2023-05-16T13:33:26;21.10;82.40
16958;DHT22;8595;52.542;11.974;2023-05-16T13:35:53;21.50;82.90
16958;DHT22;8595;52.542;11.974;2023-05-16T13:38:21;21.40;84.00
16958;DHT22;8595;52.542;11.974;2023-05-16T13:40:47;21.60;83.20
16958;DHT22;8595;52.542;11.974;2023-05-16T13:43:14;21.40;79.30
16958;DHT22;8595;52.542;11.974;2023-05-16T13:45:41;21.40;77.60
16958;DHT22;8595;52.542;11.974;2023-05-16T13:48:08;21.20;74.90
16958;DHT22;8595;52.542;11.974;2023-05-16T13:50:37;21.70;78.00
16958;DHT22;8595;52.542;11.974;2023-05-16T13:53:04;21.00;74.40
16958;DHT22;8595;52.542;11.974;2023-05-16T13:55:31;20.60;78.30
16958;DHT22;8595;52.542;11.974;2023-05-16T13:57:58;20.40;74.60
16958;DHT22;8595;52.542;11.974;2023-05-16T14:00:25;20.70;72.90
16958;DHT22;8595;52.542;11.974;2023-05-16T14:02:52;21.20;71.80
16958;DHT22;8595;52.542;11.974;2023-05-16T14:05:19;22.40;74.30
16958;DHT22;8595;52.542;11.974;2023-05-16T14:07:47;22.60;68.20
16958;DHT22;8595;52.542;11.974;2023-05-16T14:10:14;22.30;67.70
16958;DHT22;8595;52.542;11.974;2023-05-16T14:12:40;21.70;69.90
16958;DHT22;8595;52.542;11.974;2023-05-16T14:15:08;22.10;72.90
16958;DHT22;8595;52.542;11.974;2023-05-16T14:17:35;22.90;73.40
16958;DHT22;8595;52.542;11.974;2023-05-16T14:20:02;23.20;70.00
16958;DHT22;8595;52.542;11.974;2023-05-16T14:22:33;22.40;69.30
16958;DHT22;8595;52.542;11.974;2023-05-16T14:25:01;22.00;71.30
16958;DHT22;8595;52.542;11.974;2023-05-16T14:27:28;21.90;71.30
16958;DHT22;8595;52.542;11.974;2023-05-16T14:29:55;20.90;71.60
16958;DHT22;8595;52.542;11.974;2023-05-16T14:32:22;20.70;73.00
16958;DHT22;8595;52.542;11.974;2023-05-16T14:34:48;20.70;74.40
16958;DHT22;8595;52.542;11.974;2023-05-16T14:37:15;20.80;70.70
16958;DHT22;8595;52.542;11.974;2023-05-16T14:39:43;20.80;70.60
16958;DHT22;8595;52.542;11.974;2023-05-16T14:42:12;21.30;72.30
16958;DHT22;8595;52.542;11.974;2023-05-16T14:44:39;21.20;73.10
16958;DHT22;8595;52.542;11.974;2023-05-16T14:47:05;21.70;73.50
16958;DHT22;8595;52.542;11.974;2023-05-16T14:49:32;21.90;71.90
16958;DHT22;8595;52.542;11.974;2023-05-16T14:52:00;21.50;72.30
16958;DHT22;8595;52.542;11.974;2023-05-16T14:54:27;21.00;72.70
16958;DHT22;8595;52.542;11.974;2023-05-16T14:56:53;21.10;74.20
16958;DHT22;8595;52.542;11.974;2023-05-16T14:59:22;20.30;74.50
16958;DHT22;8595;52.542;11.974;2023-05-16T15:01:49;20.50;76.10
16958;DHT22;8595;52.542;11.974;2023-05-16T15:04:15;20.80;76.50
16958;DHT22;8595;52.542;11.974;2023-05-16T15:06:42;21.00;77.60
16958;DHT22;8595;52.542;11.974;2023-05-16T15:09:09;21.30;78.00
16958;DHT22;8595;52.542;11.974;2023-05-16T15:11:36;21.00;76.90
16958;DHT22;8595;52.542;11.974;2023-05-16T15:14:02;20.80;78.30
16958;DHT22;8595;52.542;11.974;2023-05-16T15:16:31;21.20;78.90
16958;DHT22;8595;52.542;11.974;2023-05-16T15:18:57;21.70;77.00
16958;DHT22;8595;52.542;11.974;2023-05-16T15:21:24;21.00;75.90
16958;DHT22;8595;52.542;11.974;2023-05-16T15:23:51;20.80;77.00
16958;DHT22;8595;52.542;11.974;2023-05-16T15:26:20;21.50;76.50
16958;DHT22;8595;52.542;11.974;2023-05-16T15:28:47;20.80;74.40
16958;DHT22;8595;52.542;11.974;2023-05-16T15:31:14;20.10;75.10
16958;DHT22;8595;52.542;11.974;2023-05-16T15:33:43;19.60;76.60
16958;DHT22;8595;52.542;11.974;2023-05-16T15:36:10;19.80;75.80